sensor_id;sensor_type;location;lat;lon;timestamp;P1;durP1;ratioP1;P2;durP2;ratioP2
55254;SDS011;41118;44.634;11.182;2023-06-22T00:00:40;8.63;;;0.60;;
55254;SDS011;41118;44.634;11.182;2023-06-22T00:03:07;7.15;;;1.42;;
55254;SDS011;41118;44.634;11.182;2023-06-22T00:05:33;2.20;;;0.90;;
55254;SDS011;41118;44.634;11.182;2023-06-22T00:08:02;3.10;;;1.02;;
55254;SDS011;41118;44.634;11.182;2023-06-22T00:10:28;3.05;;;0.80;;
55254;SDS011;41118;44.634;11.182;2023-06-22T00:12:54;4.18;;;1.02;;
55254;SDS011;41118;44.634;11.182;2023-06-22T00:15:20;4.32;;;0.60;;
55254;SDS011;41118;44.634;11.182;2023-06-22T00:17:46;5.38;;;1.35;;
55254;SDS011;41118;44.634;11.182;2023-06-22T00:20:12;6.22;;;1.05;;
55254;SDS011;41118;44.634;11.182;2023-06-22T00:22:39;6.40;;;1.15;;
55254;SDS011;41118;44.634;11.182;2023-06-22T00:25:08;3.42;;;1.10;;
55254;SDS011;41118;44.634;11.182;2023-06-22T00:27:35;9.45;;;0.60;;
55254;SDS011;41118;44.634;11.182;2023-06-22T00:30:01;2.92;;;0.75;;
55254;SDS011;41118;44.634;11.182;2023-06-22T00:32:27;3.97;;;0.95;;
55254;SDS011;41118;44.634;11.182;2023-06-22T00:34:53;5.30;;;1.70;;
55254;SDS011;41118;44.634;11.182;2023-06-22T00:37:19;3.45;;;1.23;;
55254;SDS011;41118;44.634;11.182;2023-06-22T00:39:47;5.93;;;0.80;;
55254;SDS011;41118;44.634;11.182;2023-06-22T00:42:13;4.47;;;1.20;;
55254;SDS011;41118;44.634;11.182;2023-06-22T00:44:39;2.47;;;1.40;;
55254;SDS011;41118;44.634;11.182;2023-06-22T00:47:06;6.32;;;0.65;;
55254;SDS011;41118;44.634;11.182;2023-06-22T00:49:32;2.88;;;0.90;;
55254;SDS011;41118;44.634;11.182;2023-06-22T00:51:58;3.22;;;0.50;;
55254;SDS011;41118;44.634;11.182;2023-06-22T00:54:24;5.63;;;1.10;;
55254;SDS011;41118;44.634;11.182;2023-06-22T00:56:51;5.30;;;1.08;;
55254;SDS011;41118;44.634;11.182;2023-06-22T00:59:21;2.85;;;0.70;;
55254;SDS011;41118;44.634;11.182;2023-06-22T01:01:47;6.88;;;1.05;;
55254;SDS011;41118;44.634;11.182;2023-06-22T01:04:13;3.15;;;0.60;;
55254;SDS011;41118;44.634;11.182;2023-06-22T01:07:03;2.47;;;0.80;;
55254;SDS011;41118;44.634;11.182;2023-06-22T01:09:27;4.75;;;0.70;;
55254;SDS011;41118;44.634;11.182;2023-06-22T01:11:58;3.83;;;0.60;;
55254;SDS011;41118;44.634;11.182;2023-06-22T01:14:28;1.75;;;0.82;;
55254;SDS011;41118;44.634;11.182;2023-06-22T01:16:57;4.40;;;0.75;;
55254;SDS011;41118;44.634;11.182;2023-06-22T01:22:01;6.82;;;0.93;;
55254;SDS011;41118;44.634;11.182;2023-06-22T01:24:32;4.28;;;1.02;;
55254;SDS011;41118;44.634;11.182;2023-06-22T01:29:48;2.85;;;1.17;;
55254;SDS011;41118;44.634;11.182;2023-06-22T01:32:14;4.15;;;0.77;;
55254;SDS011;41118;44.634;11.182;2023-06-22T01:34:40;3.55;;;0.50;;
55254;SDS011;41118;44.634;11.182;2023-06-22T01:37:06;2.63;;;0.50;;
55254;SDS011;41118;44.634;11.182;2023-06-22T01:39:33;3.17;;;0.60;;
55254;SDS011;41118;44.634;11.182;2023-06-22T01:42:00;3.28;;;0.80;;
55254;SDS011;41118;44.634;11.182;2023-06-22T01:44:26;4.85;;;1.08;;
55254;SDS011;41118;44.634;11.182;2023-06-22T01:46:53;1.67;;;0.73;;
55254;SDS011;41118;44.634;11.182;2023-06-22T01:49:20;2.42;;;0.75;;
55254;SDS011;41118;44.634;11.182;2023-06-22T01:51:46;2.40;;;0.60;;
55254;SDS011;41118;44.634;11.182;2023-06-22T01:54:12;8.27;;;1.15;;
55254;SDS011;41118;44.634;11.182;2023-06-22T01:56:38;2.75;;;0.73;;
55254;SDS011;41118;44.634;11.182;2023-06-22T01:59:16;2.75;;;0.65;;
55254;SDS011;41118;44.634;11.182;2023-06-22T02:01:44;2.08;;;0.68;;
55254;SDS011;41118;44.634;11.182;2023-06-22T02:04:19;6.30;;;0.95;;
55254;SDS011;41118;44.634;11.182;2023-06-22T02:06:46;3.85;;;1.27;;
55254;SDS011;41118;44.634;11.182;2023-06-22T02:09:14;2.75;;;0.68;;
55254;SDS011;41118;44.634;11.182;2023-06-22T02:11:41;9.00;;;0.85;;
55254;SDS011;41118;44.634;11.182;2023-06-22T02:14:07;3.85;;;0.50;;
55254;SDS011;41118;44.634;11.182;2023-06-22T02:16:34;3.30;;;1.02;;
55254;SDS011;41118;44.634;11.182;2023-06-22T02:19:02;1.80;;;0.60;;
55254;SDS011;41118;44.634;11.182;2023-06-22T02:21:29;2.40;;;0.70;;
55254;SDS011;41118;44.634;11.182;2023-06-22T02:23:56;2.45;;;0.80;;
55254;SDS011;41118;44.634;11.182;2023-06-22T02:26:22;9.63;;;0.77;;
55254;SDS011;41118;44.634;11.182;2023-06-22T02:28:49;5.30;;;0.70;;
55254;SDS011;41118;44.634;11.182;2023-06-22T02:31:16;6.43;;;0.82;;
55254;SDS011;41118;44.634;11.182;2023-06-22T02:33:42;5.43;;;1.33;;
55254;SDS011;41118;44.634;11.182;2023-06-22T02:36:09;1.92;;;0.82;;
55254;SDS011;41118;44.634;11.182;2023-06-22T02:38:38;4.47;;;0.98;;
55254;SDS011;41118;44.634;11.182;2023-06-22T02:41:04;4.45;;;0.77;;
55254;SDS011;41118;44.634;11.182;2023-06-22T02:43:31;3.97;;;0.60;;
55254;SDS011;41118;44.634;11.182;2023-06-22T02:45:57;2.88;;;0.50;;
55254;SDS011;41118;44.634;11.182;2023-06-22T02:48:23;3.70;;;0.50;;
55254;SDS011;41118;44.634;11.182;2023-06-22T02:50:49;2.20;;;1.00;;
55254;SDS011;41118;44.634;11.182;2023-06-22T02:53:16;4.22;;;0.70;;
55254;SDS011;41118;44.634;11.182;2023-06-22T02:55:42;3.20;;;0.70;;
55254;SDS011;41118;44.634;11.182;2023-06-22T02:58:08;3.13;;;1.08;;
55254;SDS011;41118;44.634;11.182;2023-06-22T03:00:34;4.45;;;0.98;;
55254;SDS011;41118;44.634;11.182;2023-06-22T03:03:00;8.20;;;0.73;;
55254;SDS011;41118;44.634;11.182;2023-06-22T03:05:26;4.30;;;0.68;;
55254;SDS011;41118;44.634;11.182;2023-06-22T03:07:52;7.57;;;0.85;;
55254;SDS011;41118;44.634;11.182;2023-06-22T03:10:18;3.00;;;0.75;;
55254;SDS011;41118;44.634;11.182;2023-06-22T03:12:44;3.38;;;0.82;;
55254;SDS011;41118;44.634;11.182;2023-06-22T03:15:11;10.75;;;0.70;;
55254;SDS011;41118;44.634;11.182;2023-06-22T03:17:38;6.75;;;2.05;;
55254;SDS011;41118;44.634;11.182;2023-06-22T03:20:05;7.55;;;0.88;;
55254;SDS011;41118;44.634;11.182;2023-06-22T03:22:35;4.35;;;1.48;;
55254;SDS011;41118;44.634;11.182;2023-06-22T03:25:02;9.77;;;1.20;;
55254;SDS011;41118;44.634;11.182;2023-06-22T03:27:28;6.72;;;1.70;;
55254;SDS011;41118;44.634;11.182;2023-06-22T03:29:54;3.42;;;1.45;;
55254;SDS011;41118;44.634;11.182;2023-06-22T03:32:20;2.95;;;0.60;;
55254;SDS011;41118;44.634;11.182;2023-06-22T03:34:46;7.93;;;1.20;;
55254;SDS011;41118;44.634;11.182;2023-06-22T03:37:13;7.95;;;1.13;;
55254;SDS011;41118;44.634;11.182;2023-06-22T03:39:40;9.02;;;1.00;;
55254;SDS011;41118;44.634;11.182;2023-06-22T03:42:06;2.63;;;1.20;;
55254;SDS011;41118;44.634;11.182;2023-06-22T03:44:32;10.25;;;1.48;;
55254;SDS011;41118;44.634;11.182;2023-06-22T03:47:00;7.18;;;2.83;;
55254;SDS011;41118;44.634;11.182;2023-06-22T03:49:27;5.63;;;2.10;;
55254;SDS011;41118;44.634;11.182;2023-06-22T03:51:53;8.68;;;2.70;;
55254;SDS011;41118;44.634;11.182;2023-06-22T03:54:19;9.18;;;2.53;;
55254;SDS011;41118;44.634;11.182;2023-06-22T03:56:46;7.38;;;2.20;;
55254;SDS011;41118;44.634;11.182;2023-06-22T03:59:12;8.65;;;2.70;;
55254;SDS011;41118;44.634;11.182;2023-06-22T04:01:38;7.75;;;1.33;;
55254;SDS011;41118;44.634;11.182;2023-06-22T04:04:05;9.93;;;3.30;;
55254;SDS011;41118;44.634;11.182;2023-06-22T04:06:31;6.32;;;2.92;;
55254;SDS011;41118;44.634;11.182;2023-06-22T04:08:58;8.20;;;3.72;;
55254;SDS011;41118;44.634;11.182;2023-06-22T04:11:25;12.45;;;3.88;;
55254;SDS011;41118;44.634;11.182;2023-06-22T04:13:51;11.45;;;3.35;;
55254;SDS011;41118;44.634;11.182;2023-06-22T04:16:18;13.20;;;4.82;;
55254;SDS011;41118;44.634;11.182;2023-06-22T04:18:44;8.60;;;3.42;;
55254;SDS011;41118;44.634;11.182;2023-06-22T04:21:10;11.55;;;4.43;;
55254;SDS011;41118;44.634;11.182;2023-06-22T04:23:36;15.98;;;4.70;;
55254;SDS011;41118;44.634;11.182;2023-06-22T04:26:02;13.82;;;4.32;;
55254;SDS011;41118;44.634;11.182;2023-06-22T04:28:29;7.40;;;4.03;;
55254;SDS011;41118;44.634;11.182;2023-06-22T04:30:59;11.98;;;5.05;;
55254;SDS011;41118;44.634;11.182;2023-06-22T04:33:26;14.80;;;4.00;;
55254;SDS011;41118;44.634;11.182;2023-06-22T04:35:54;15.55;;;5.15;;
55254;SDS011;41118;44.634;11.182;2023-06-22T04:38:22;10.50;;;5.47;;
55254;SDS011;41118;44.634;11.182;2023-06-22T04:40:48;11.25;;;5.38;;
55254;SDS011;41118;44.634;11.182;2023-06-22T04:43:15;12.05;;;5.32;;
55254;SDS011;41118;44.634;11.182;2023-06-22T04:45:41;16.02;;;5.32;;
55254;SDS011;41118;44.634;11.182;2023-06-22T04:48:07;19.70;;;6.50;;
55254;SDS011;41118;44.634;11.182;2023-06-22T04:50:41;11.45;;;5.57;;
55254;SDS011;41118;44.634;11.182;2023-06-22T04:53:07;11.40;;;5.60;;
55254;SDS011;41118;44.634;11.182;2023-06-22T04:55:34;9.88;;;4.25;;
55254;SDS011;41118;44.634;11.182;2023-06-22T04:58:02;11.70;;;3.15;;
55254;SDS011;41118;44.634;11.182;2023-06-22T05:00:29;13.20;;;5.32;;
55254;SDS011;41118;44.634;11.182;2023-06-22T05:02:56;9.02;;;4.07;;
55254;SDS011;41118;44.634;11.182;2023-06-22T05:05:23;9.23;;;5.07;;
55254;SDS011;41118;44.634;11.182;2023-06-22T05:07:50;5.85;;;3.72;;
55254;SDS011;41118;44.634;11.182;2023-06-22T05:10:17;12.05;;;4.85;;
55254;SDS011;41118;44.634;11.182;2023-06-22T05:12:43;10.68;;;4.32;;
55254;SDS011;41118;44.634;11.182;2023-06-22T05:15:10;13.63;;;3.72;;
55254;SDS011;41118;44.634;11.182;2023-06-22T05:17:36;11.32;;;4.00;;
55254;SDS011;41118;44.634;11.182;2023-06-22T05:20:07;14.88;;;3.97;;
55254;SDS011;41118;44.634;11.182;2023-06-22T05:22:34;6.88;;;3.30;;
55254;SDS011;41118;44.634;11.182;2023-06-22T05:25:00;16.08;;;5.72;;
55254;SDS011;41118;44.634;11.182;2023-06-22T05:27:26;11.07;;;4.82;;
55254;SDS011;41118;44.634;11.182;2023-06-22T05:29:52;11.18;;;5.90;;
55254;SDS011;41118;44.634;11.182;2023-06-22T05:32:18;10.10;;;3.88;;
55254;SDS011;41118;44.634;11.182;2023-06-22T05:34:45;10.52;;;5.75;;
55254;SDS011;41118;44.634;11.182;2023-06-22T05:37:11;14.38;;;4.68;;
55254;SDS011;41118;44.634;11.182;2023-06-22T05:39:37;13.48;;;4.22;;
55254;SDS011;41118;44.634;11.182;2023-06-22T05:42:07;9.85;;;5.05;;
55254;SDS011;41118;44.634;11.182;2023-06-22T05:44:33;12.50;;;5.30;;
55254;SDS011;41118;44.634;11.182;2023-06-22T05:46:59;8.35;;;5.00;;
55254;SDS011;41118;44.634;11.182;2023-06-22T05:49:26;11.25;;;6.30;;
55254;SDS011;41118;44.634;11.182;2023-06-22T05:51:57;16.02;;;5.40;;
55254;SDS011;41118;44.634;11.182;2023-06-22T05:54:24;6.85;;;3.78;;
55254;SDS011;41118;44.634;11.182;2023-06-22T05:56:50;9.68;;;5.38;;
55254;SDS011;41118;44.634;11.182;2023-06-22T05:59:16;10.38;;;3.40;;
55254;SDS011;41118;44.634;11.182;2023-06-22T06:01:43;11.82;;;5.20;;
55254;SDS011;41118;44.634;11.182;2023-06-22T06:04:09;9.82;;;4.28;;
55254;SDS011;41118;44.634;11.182;2023-06-22T06:06:35;9.05;;;4.68;;
55254;SDS011;41118;44.634;11.182;2023-06-22T06:09:04;11.90;;;4.75;;
55254;SDS011;41118;44.634;11.182;2023-06-22T06:11:32;12.80;;;5.55;;
55254;SDS011;41118;44.634;11.182;2023-06-22T06:13:58;10.75;;;4.72;;
55254;SDS011;41118;44.634;11.182;2023-06-22T06:16:24;17.52;;;5.05;;
55254;SDS011;41118;44.634;11.182;2023-06-22T06:18:51;12.63;;;5.35;;
55254;SDS011;41118;44.634;11.182;2023-06-22T06:21:18;7.55;;;5.00;;
55254;SDS011;41118;44.634;11.182;2023-06-22T06:23:44;9.43;;;4.53;;
55254;SDS011;41118;44.634;11.182;2023-06-22T06:26:10;14.48;;;4.93;;
55254;SDS011;41118;44.634;11.182;2023-06-22T06:28:36;7.75;;;3.15;;
55254;SDS011;41118;44.634;11.182;2023-06-22T06:31:02;14.40;;;3.97;;
55254;SDS011;41118;44.634;11.182;2023-06-22T06:33:32;10.48;;;2.33;;
55254;SDS011;41118;44.634;11.182;2023-06-22T06:35:58;7.43;;;2.90;;
55254;SDS011;41118;44.634;11.182;2023-06-22T06:38:26;9.23;;;4.05;;
55254;SDS011;41118;44.634;11.182;2023-06-22T06:40:53;10.90;;;2.22;;
55254;SDS011;41118;44.634;11.182;2023-06-22T06:43:19;8.30;;;2.15;;
55254;SDS011;41118;44.634;11.182;2023-06-22T06:45:45;13.98;;;2.90;;
55254;SDS011;41118;44.634;11.182;2023-06-22T06:48:11;12.48;;;4.00;;
55254;SDS011;41118;44.634;11.182;2023-06-22T06:50:37;6.70;;;2.63;;
55254;SDS011;41118;44.634;11.182;2023-06-22T06:53:03;10.75;;;2.17;;
55254;SDS011;41118;44.634;11.182;2023-06-22T06:55:30;11.20;;;4.13;;
55254;SDS011;41118;44.634;11.182;2023-06-22T06:57:58;24.45;;;4.13;;
55254;SDS011;41118;44.634;11.182;2023-06-22T07:00:25;11.82;;;2.28;;
55254;SDS011;41118;44.634;11.182;2023-06-22T07:02:51;8.55;;;1.98;;
55254;SDS011;41118;44.634;11.182;2023-06-22T07:05:18;8.80;;;2.80;;
55254;SDS011;41118;44.634;11.182;2023-06-22T07:07:44;7.65;;;2.15;;
55254;SDS011;41118;44.634;11.182;2023-06-22T07:10:10;5.95;;;3.10;;
55254;SDS011;41118;44.634;11.182;2023-06-22T07:12:36;11.52;;;3.45;;
55254;SDS011;41118;44.634;11.182;2023-06-22T07:15:06;8.55;;;2.45;;
55254;SDS011;41118;44.634;11.182;2023-06-22T07:17:36;12.15;;;3.25;;
55254;SDS011;41118;44.634;11.182;2023-06-22T07:20:04;9.07;;;2.63;;
55254;SDS011;41118;44.634;11.182;2023-06-22T07:22:33;9.48;;;2.40;;
55254;SDS011;41118;44.634;11.182;2023-06-22T07:24:59;9.18;;;1.80;;
55254;SDS011;41118;44.634;11.182;2023-06-22T07:27:26;7.07;;;1.85;;
55254;SDS011;41118;44.634;11.182;2023-06-22T07:29:52;5.18;;;2.47;;
55254;SDS011;41118;44.634;11.182;2023-06-22T07:32:20;9.77;;;3.13;;
55254;SDS011;41118;44.634;11.182;2023-06-22T07:34:46;11.88;;;3.08;;
55254;SDS011;41118;44.634;11.182;2023-06-22T07:37:12;4.82;;;2.33;;
55254;SDS011;41118;44.634;11.182;2023-06-22T07:39:38;12.40;;;2.65;;
55254;SDS011;41118;44.634;11.182;2023-06-22T07:42:05;7.95;;;2.10;;
55254;SDS011;41118;44.634;11.182;2023-06-22T07:44:31;4.30;;;1.88;;
55254;SDS011;41118;44.634;11.182;2023-06-22T07:46:57;6.65;;;3.33;;
55254;SDS011;41118;44.634;11.182;2023-06-22T07:49:23;5.72;;;2.47;;
55254;SDS011;41118;44.634;11.182;2023-06-22T07:51:49;9.18;;;3.00;;
55254;SDS011;41118;44.634;11.182;2023-06-22T07:54:16;6.80;;;3.15;;
55254;SDS011;41118;44.634;11.182;2023-06-22T07:56:42;10.15;;;2.92;;
55254;SDS011;41118;44.634;11.182;2023-06-22T07:59:08;9.48;;;3.75;;
55254;SDS011;41118;44.634;11.182;2023-06-22T08:01:35;7.93;;;2.17;;
55254;SDS011;41118;44.634;11.182;2023-06-22T08:04:01;8.95;;;3.20;;
55254;SDS011;41118;44.634;11.182;2023-06-22T08:06:29;10.95;;;2.70;;
55254;SDS011;41118;44.634;11.182;2023-06-22T08:08:55;13.13;;;2.83;;
55254;SDS011;41118;44.634;11.182;2023-06-22T08:11:23;4.95;;;1.85;;
55254;SDS011;41118;44.634;11.182;2023-06-22T08:13:50;5.70;;;1.80;;
55254;SDS011;41118;44.634;11.182;2023-06-22T08:16:16;7.75;;;1.67;;
55254;SDS011;41118;44.634;11.182;2023-06-22T08:18:42;9.02;;;1.45;;
55254;SDS011;41118;44.634;11.182;2023-06-22T08:21:09;6.80;;;2.15;;
55254;SDS011;41118;44.634;11.182;2023-06-22T08:23:36;5.28;;;2.38;;
55254;SDS011;41118;44.634;11.182;2023-06-22T08:26:02;8.10;;;2.55;;
55254;SDS011;41118;44.634;11.182;2023-06-22T08:28:28;9.63;;;1.65;;
55254;SDS011;41118;44.634;11.182;2023-06-22T08:30:55;5.47;;;1.48;;
55254;SDS011;41118;44.634;11.182;2023-06-22T08:33:21;10.30;;;2.83;;
55254;SDS011;41118;44.634;11.182;2023-06-22T08:35:54;10.75;;;1.83;;
55254;SDS011;41118;44.634;11.182;2023-06-22T08:38:20;8.65;;;3.42;;
55254;SDS011;41118;44.634;11.182;2023-06-22T08:40:46;4.80;;;2.28;;
55254;SDS011;41118;44.634;11.182;2023-06-22T08:43:13;9.27;;;2.15;;
55254;SDS011;41118;44.634;11.182;2023-06-22T08:45:39;12.68;;;2.67;;
55254;SDS011;41118;44.634;11.182;2023-06-22T08:48:05;4.55;;;1.80;;
55254;SDS011;41118;44.634;11.182;2023-06-22T08:50:31;13.23;;;6.57;;
55254;SDS011;41118;44.634;11.182;2023-06-22T08:52:57;10.57;;;3.50;;
55254;SDS011;41118;44.634;11.182;2023-06-22T08:55:23;15.23;;;4.05;;
55254;SDS011;41118;44.634;11.182;2023-06-22T08:57:50;9.25;;;3.63;;
55254;SDS011;41118;44.634;11.182;2023-06-22T09:00:16;13.65;;;4.07;;
55254;SDS011;41118;44.634;11.182;2023-06-22T09:02:46;16.08;;;4.10;;
55254;SDS011;41118;44.634;11.182;2023-06-22T09:05:12;10.23;;;4.60;;
55254;SDS011;41118;44.634;11.182;2023-06-22T09:07:38;12.15;;;4.45;;
55254;SDS011;41118;44.634;11.182;2023-06-22T09:10:05;10.30;;;4.03;;
55254;SDS011;41118;44.634;11.182;2023-06-22T09:12:31;11.98;;;3.55;;
55254;SDS011;41118;44.634;11.182;2023-06-22T09:14:58;22.73;;;8.93;;
55254;SDS011;41118;44.634;11.182;2023-06-22T09:17:28;13.80;;;6.07;;
55254;SDS011;41118;44.634;11.182;2023-06-22T09:19:54;13.13;;;3.58;;
55254;SDS011;41118;44.634;11.182;2023-06-22T09:22:20;10.50;;;3.75;;
55254;SDS011;41118;44.634;11.182;2023-06-22T09:24:46;15.43;;;5.70;;
55254;SDS011;41118;44.634;11.182;2023-06-22T09:27:13;13.55;;;4.55;;
55254;SDS011;41118;44.634;11.182;2023-06-22T09:29:39;13.05;;;5.55;;
55254;SDS011;41118;44.634;11.182;2023-06-22T09:32:05;16.48;;;5.22;;
55254;SDS011;41118;44.634;11.182;2023-06-22T09:34:31;9.55;;;5.07;;
55254;SDS011;41118;44.634;11.182;2023-06-22T09:36:57;10.88;;;3.35;;
55254;SDS011;41118;44.634;11.182;2023-06-22T09:39:25;6.93;;;3.30;;
55254;SDS011;41118;44.634;11.182;2023-06-22T09:41:51;7.95;;;3.03;;
55254;SDS011;41118;44.634;11.182;2023-06-22T09:44:17;10.05;;;2.72;;
55254;SDS011;41118;44.634;11.182;2023-06-22T09:46:43;4.65;;;1.75;;
55254;SDS011;41118;44.634;11.182;2023-06-22T09:49:10;15.25;;;5.40;;
55254;SDS011;41118;44.634;11.182;2023-06-22T09:51:36;5.50;;;3.60;;
55254;SDS011;41118;44.634;11.182;2023-06-22T09:54:02;12.77;;;4.18;;
55254;SDS011;41118;44.634;11.182;2023-06-22T09:56:28;4.20;;;1.20;;
55254;SDS011;41118;44.634;11.182;2023-06-22T09:58:55;5.05;;;1.05;;
55254;SDS011;41118;44.634;11.182;2023-06-22T10:01:21;10.15;;;1.25;;
55254;SDS011;41118;44.634;11.182;2023-06-22T10:03:47;6.88;;;1.02;;
55254;SDS011;41118;44.634;11.182;2023-06-22T10:06:14;4.28;;;0.77;;
55254;SDS011;41118;44.634;11.182;2023-06-22T10:08:40;4.40;;;0.50;;
55254;SDS011;41118;44.634;11.182;2023-06-22T10:11:07;6.40;;;0.68;;
55254;SDS011;41118;44.634;11.182;2023-06-22T10:13:33;6.57;;;1.05;;
55254;SDS011;41118;44.634;11.182;2023-06-22T10:15:59;7.43;;;1.00;;
55254;SDS011;41118;44.634;11.182;2023-06-22T10:18:24;1.95;;;0.73;;
55254;SDS011;41118;44.634;11.182;2023-06-22T10:20:51;5.38;;;0.68;;
55254;SDS011;41118;44.634;11.182;2023-06-22T10:23:20;3.65;;;0.85;;
55254;SDS011;41118;44.634;11.182;2023-06-22T10:25:46;7.15;;;0.95;;
55254;SDS011;41118;44.634;11.182;2023-06-22T10:28:12;4.18;;;0.80;;
55254;SDS011;41118;44.634;11.182;2023-06-22T10:30:41;6.38;;;0.82;;
55254;SDS011;41118;44.634;11.182;2023-06-22T10:33:08;4.50;;;1.77;;
55254;SDS011;41118;44.634;11.182;2023-06-22T10:35:34;7.20;;;2.58;;
55254;SDS011;41118;44.634;11.182;2023-06-22T10:38:02;7.45;;;2.17;;
55254;SDS011;41118;44.634;11.182;2023-06-22T10:40:28;9.32;;;2.45;;
55254;SDS011;41118;44.634;11.182;2023-06-22T10:42:54;6.03;;;1.23;;
55254;SDS011;41118;44.634;11.182;2023-06-22T10:45:20;10.38;;;1.77;;
55254;SDS011;41118;44.634;11.182;2023-06-22T10:47:46;5.03;;;1.50;;
55254;SDS011;41118;44.634;11.182;2023-06-22T10:50:12;7.22;;;3.00;;
55254;SDS011;41118;44.634;11.182;2023-06-22T10:52:39;9.85;;;1.35;;
55254;SDS011;41118;44.634;11.182;2023-06-22T10:55:07;4.32;;;1.00;;
55254;SDS011;41118;44.634;11.182;2023-06-22T10:57:33;3.33;;;0.70;;
55254;SDS011;41118;44.634;11.182;2023-06-22T10:59:59;3.08;;;0.50;;
55254;SDS011;41118;44.634;11.182;2023-06-22T11:02:25;6.95;;;1.27;;
55254;SDS011;41118;44.634;11.182;2023-06-22T11:04:53;4.43;;;1.23;;
55254;SDS011;41118;44.634;11.182;2023-06-22T11:07:19;2.88;;;0.70;;
55254;SDS011;41118;44.634;11.182;2023-06-22T11:09:45;12.95;;;0.80;;
55254;SDS011;41118;44.634;11.182;2023-06-22T11:12:11;2.47;;;0.50;;
55254;SDS011;41118;44.634;11.182;2023-06-22T11:14:38;3.83;;;0.70;;
55254;SDS011;41118;44.634;11.182;2023-06-22T11:17:05;5.75;;;0.80;;
55254;SDS011;41118;44.634;11.182;2023-06-22T11:19:31;5.18;;;0.80;;
55254;SDS011;41118;44.634;11.182;2023-06-22T11:21:57;4.47;;;1.33;;
55254;SDS011;41118;44.634;11.182;2023-06-22T11:24:23;4.95;;;1.02;;
55254;SDS011;41118;44.634;11.182;2023-06-22T11:26:49;5.75;;;0.77;;
55254;SDS011;41118;44.634;11.182;2023-06-22T11:29:15;6.75;;;1.77;;
55254;SDS011;41118;44.634;11.182;2023-06-22T11:31:41;5.40;;;0.57;;
55254;SDS011;41118;44.634;11.182;2023-06-22T11:34:08;5.97;;;0.50;;
55254;SDS011;41118;44.634;11.182;2023-06-22T11:36:34;9.00;;;0.60;;
55254;SDS011;41118;44.634;11.182;2023-06-22T11:39:01;2.85;;;0.65;;
55254;SDS011;41118;44.634;11.182;2023-06-22T11:41:27;5.70;;;0.40;;
55254;SDS011;41118;44.634;11.182;2023-06-22T11:43:53;9.43;;;1.23;;
55254;SDS011;41118;44.634;11.182;2023-06-22T11:46:19;4.03;;;0.35;;
55254;SDS011;41118;44.634;11.182;2023-06-22T11:48:45;4.15;;;0.45;;
55254;SDS011;41118;44.634;11.182;2023-06-22T11:51:11;2.17;;;0.43;;
55254;SDS011;41118;44.634;11.182;2023-06-22T11:53:38;1.88;;;0.40;;
55254;SDS011;41118;44.634;11.182;2023-06-22T11:56:04;5.18;;;0.60;;
55254;SDS011;41118;44.634;11.182;2023-06-22T11:58:30;3.53;;;0.50;;
55254;SDS011;41118;44.634;11.182;2023-06-22T12:00:56;3.17;;;0.50;;
55254;SDS011;41118;44.634;11.182;2023-06-22T12:03:22;2.63;;;0.50;;
55254;SDS011;41118;44.634;11.182;2023-06-22T12:05:51;9.45;;;0.63;;
55254;SDS011;41118;44.634;11.182;2023-06-22T12:08:17;2.58;;;0.50;;
55254;SDS011;41118;44.634;11.182;2023-06-22T12:10:44;5.40;;;0.90;;
55254;SDS011;41118;44.634;11.182;2023-06-22T12:13:10;2.10;;;0.35;;
55254;SDS011;41118;44.634;11.182;2023-06-22T12:15:36;1.33;;;0.40;;
55254;SDS011;41118;44.634;11.182;2023-06-22T12:18:02;2.13;;;0.40;;
55254;SDS011;41118;44.634;11.182;2023-06-22T12:20:28;10.88;;;1.05;;
55254;SDS011;41118;44.634;11.182;2023-06-22T12:22:54;5.18;;;0.45;;
55254;SDS011;41118;44.634;11.182;2023-06-22T12:25:23;9.05;;;0.70;;
55254;SDS011;41118;44.634;11.182;2023-06-22T12:27:49;1.70;;;0.40;;
55254;SDS011;41118;44.634;11.182;2023-06-22T12:30:16;5.57;;;0.50;;
55254;SDS011;41118;44.634;11.182;2023-06-22T12:32:42;2.03;;;0.40;;
55254;SDS011;41118;44.634;11.182;2023-06-22T12:35:08;1.70;;;0.40;;
55254;SDS011;41118;44.634;11.182;2023-06-22T12:37:39;2.45;;;0.40;;
55254;SDS011;41118;44.634;11.182;2023-06-22T12:40:06;2.35;;;0.40;;
55254;SDS011;41118;44.634;11.182;2023-06-22T12:42:32;5.53;;;0.40;;
55254;SDS011;41118;44.634;11.182;2023-06-22T12:44:58;4.45;;;0.32;;
55254;SDS011;41118;44.634;11.182;2023-06-22T12:47:24;3.17;;;0.38;;
55254;SDS011;41118;44.634;11.182;2023-06-22T12:49:50;2.38;;;0.30;;
55254;SDS011;41118;44.634;11.182;2023-06-22T12:52:16;15.15;;;0.50;;
55254;SDS011;41118;44.634;11.182;2023-06-22T12:54:43;14.75;;;0.43;;
55254;SDS011;41118;44.634;11.182;2023-06-22T12:57:09;2.75;;;0.30;;
55254;SDS011;41118;44.634;11.182;2023-06-22T12:59:35;3.67;;;0.20;;
55254;SDS011;41118;44.634;11.182;2023-06-22T13:02:02;4.28;;;0.30;;
55254;SDS011;41118;44.634;11.182;2023-06-22T13:04:28;5.47;;;0.40;;
55254;SDS011;41118;44.634;11.182;2023-06-22T13:06:54;1.77;;;0.30;;
55254;SDS011;41118;44.634;11.182;2023-06-22T13:09:20;4.65;;;0.40;;
55254;SDS011;41118;44.634;11.182;2023-06-22T13:11:46;3.25;;;0.40;;
55254;SDS011;41118;44.634;11.182;2023-06-22T13:14:12;2.55;;;0.40;;
55254;SDS011;41118;44.634;11.182;2023-06-22T13:16:38;1.60;;;0.30;;
55254;SDS011;41118;44.634;11.182;2023-06-22T13:19:04;5.72;;;0.40;;
55254;SDS011;41118;44.634;11.182;2023-06-22T13:21:30;4.18;;;0.40;;
55254;SDS011;41118;44.634;11.182;2023-06-22T13:23:56;2.25;;;0.30;;
55254;SDS011;41118;44.634;11.182;2023-06-22T13:26:22;2.97;;;0.40;;
55254;SDS011;41118;44.634;11.182;2023-06-22T13:28:48;6.50;;;0.50;;
55254;SDS011;41118;44.634;11.182;2023-06-22T13:31:15;4.05;;;0.40;;
55254;SDS011;41118;44.634;11.182;2023-06-22T13:33:41;12.25;;;0.40;;
55254;SDS011;41118;44.634;11.182;2023-06-22T13:36:09;2.55;;;0.35;;
55254;SDS011;41118;44.634;11.182;2023-06-22T13:38:35;6.43;;;0.30;;
55254;SDS011;41118;44.634;11.182;2023-06-22T13:41:03;1.70;;;0.30;;
55254;SDS011;41118;44.634;11.182;2023-06-22T13:43:30;3.88;;;0.30;;
55254;SDS011;41118;44.634;11.182;2023-06-22T13:45:56;17.00;;;1.40;;
55254;SDS011;41118;44.634;11.182;2023-06-22T13:48:22;1.52;;;0.30;;
55254;SDS011;41118;44.634;11.182;2023-06-22T13:50:50;1.83;;;0.30;;
55254;SDS011;41118;44.634;11.182;2023-06-22T13:53:16;3.80;;;0.35;;
55254;SDS011;41118;44.634;11.182;2023-06-22T13:55:42;15.00;;;0.95;;
55254;SDS011;41118;44.634;11.182;2023-06-22T13:58:09;5.28;;;0.40;;
55254;SDS011;41118;44.634;11.182;2023-06-22T14:00:35;2.25;;;0.35;;
55254;SDS011;41118;44.634;11.182;2023-06-22T14:03:02;1.33;;;0.25;;
55254;SDS011;41118;44.634;11.182;2023-06-22T14:05:28;2.15;;;0.25;;
55254;SDS011;41118;44.634;11.182;2023-06-22T14:07:54;2.55;;;0.30;;
55254;SDS011;41118;44.634;11.182;2023-06-22T14:10:20;1.40;;;0.30;;
55254;SDS011;41118;44.634;11.182;2023-06-22T14:12:46;3.78;;;0.30;;
55254;SDS011;41118;44.634;11.182;2023-06-22T14:15:13;4.05;;;0.32;;
55254;SDS011;41118;44.634;11.182;2023-06-22T14:17:39;2.00;;;0.22;;
55254;SDS011;41118;44.634;11.182;2023-06-22T14:20:05;1.77;;;0.20;;
55254;SDS011;41118;44.634;11.182;2023-06-22T14:22:33;2.17;;;0.20;;
55254;SDS011;41118;44.634;11.182;2023-06-22T14:25:00;4.57;;;0.30;;
55254;SDS011;41118;44.634;11.182;2023-06-22T14:27:26;1.75;;;0.20;;
55254;SDS011;41118;44.634;11.182;2023-06-22T14:29:52;1.83;;;0.20;;
55254;SDS011;41118;44.634;11.182;2023-06-22T14:32:18;1.98;;;0.30;;